Time;durP1;ratioP1;P1;durP2;ratioP2;P2;SDS_P1;SDS_P2;PMS_P1;PMS_P2;Temp;Humidity;BMP_temperature;BMP_pressure;BME280_temperature;BME280_humidity;BME280_pressure;Samples;Min_cycle;Max_cycle;Signal;HPM_P1;HPM_P2
2022/05/07 00:00:12;;;;;;;;;;;;;;;10.08;100.00;98984.78;3218053;23;19998;-92
2022/05/07 00:01:48;;;;;;;;;;;;;;;10.06;100.00;98982.19;3219297;23;19954;-92
2022/05/07 00:03:03;;;;;;;;;;;;;;;10.06;100.00;98981.31;3218901;23;19943;-92
2022/05/07 00:04:18;;;;;;;;;;;;;;;10.04;100.00;98981.34;3212133;23;19950;-93
2022/05/07 00:05:34;;;;;;;;;;;;;;;10.02;100.00;98983.13;3211762;23;19931;-93
2022/05/07 00:06:49;;;;;;;;;;;;;;;10.03;100.00;98985.69;3223108;23;19935;-92
2022/05/07 00:08:05;;;;;;;;;;;;;;;10.03;100.00;98988.31;3225523;23;19934;-93
2022/05/07 00:09:21;;;;;;;;;;;;;;;10.00;100.00;98987.53;3225267;23;19908;-94
2022/05/07 00:10:36;;;;;;;;;;;;;;;9.99;100.00;98991.88;3219167;23;19930;-94
2022/05/07 00:11:51;;;;;;;;;;;;;;;9.99;100.00;98986.66;3212470;23;20193;-93
2022/05/07 00:13:07;;;;;;;;;;;;;;;9.95;100.00;98989.34;3212324;23;20520;-92
2022/05/07 00:14:22;;;;;;;;;;;;;;;10.00;100.00;98984.91;3212178;23;20058;-93
2022/05/07 00:15:38;;;;;;;;;;;;;;;10.00;100.00;98988.38;3212024;23;20338;-91
2022/05/07 00:18:28;;;;;;;;;;;;;;;10.00;100.00;98992.75;3212402;23;19928;-92
2022/05/07 00:19:44;;;;;;;;;;;;;;;10.00;100.00;98987.53;3216417;23;19928;-93
2022/05/07 00:20:59;;;;;;;;;;;;;;;10.01;100.00;98986.66;3212071;23;19999;-92
2022/05/07 00:22:15;;;;;;;;;;;;;;;9.96;100.00;98989.31;3211086;23;20056;-93
2022/05/07 00:23:30;;;;;;;;;;;;;;;9.91;100.00;98985.91;3211620;23;19923;-92
2022/05/07 00:24:46;;;;;;;;;;;;;;;9.84;100.00;98981.69;3211593;23;19924;-92
2022/05/07 00:26:02;;;;;;;;;;;;;;;9.86;100.00;98982.50;3211405;23;19925;-92
2022/05/07 00:27:17;;;;;;;;;;;;;;;9.84;100.00;98989.53;3212165;23;20355;-93
2022/05/07 00:28:33;;;;;;;;;;;;;;;9.82;100.00;98988.69;3213891;23;19966;-91
2022/05/07 00:29:49;;;;;;;;;;;;;;;9.72;100.00;98980.97;3214198;23;19924;-92
2022/05/07 00:31:05;;;;;;;;;;;;;;;9.71;100.00;98983.66;3214563;23;19924;-92
2022/05/07 00:32:20;;;;;;;;;;;;;;;9.65;100.00;98984.59;3213667;23;20391;-94
2022/05/07 00:33:35;;;;;;;;;;;;;;;9.63;100.00;98981.13;3212375;23;19939;-93
2022/05/07 00:34:51;;;;;;;;;;;;;;;9.64;100.00;98982.00;3212303;23;20663;-92
2022/05/07 00:36:06;;;;;;;;;;;;;;;9.62;100.00;98982.00;3212359;23;19924;-94
2022/05/07 00:37:23;;;;;;;;;;;;;;;9.62;100.00;98982.00;3212081;23;19923;-93
2022/05/07 00:38:38;;;;;;;;;;;;;;;9.58;100.00;98978.59;3212360;23;19978;-93
2022/05/07 00:39:54;;;;;;;;;;;;;;;9.53;100.00;98982.16;3212155;23;20038;-93
2022/05/07 00:41:09;;;;;;;;;;;;;;;9.49;100.00;98978.72;3212349;23;20271;-93
2022/05/07 00:42:25;;;;;;;;;;;;;;;9.47;100.00;98975.28;3211986;23;20354;-93
2022/05/07 00:43:41;;;;;;;;;;;;;;;9.34;100.00;98977.19;3212242;23;19931;-93
2022/05/07 00:44:56;;;;;;;;;;;;;;;9.30;100.00;98986.84;3212126;23;19923;-93
2022/05/07 00:46:12;;;;;;;;;;;;;;;9.19;100.00;98976.53;3211882;23;19930;-94
2022/05/07 00:47:28;;;;;;;;;;;;;;;9.16;100.00;98978.34;3211186;23;19982;-93
2022/05/07 00:48:44;;;;;;;;;;;;;;;9.16;100.00;98983.56;3211736;23;20173;-93
2022/05/07 00:51:34;;;;;;;;;;;;;;;9.13;100.00;98983.56;3211829;23;19946;-92
2022/05/07 00:52:50;;;;;;;;;;;;;;;9.14;100.00;98974.84;3211393;23;19923;-93
2022/05/07 00:54:07;;;;;;;;;;;;;;;9.12;100.00;98982.72;3211324;23;19927;-93
2022/05/07 00:55:23;;;;;;;;;;;;;;;9.11;100.00;98980.13;3211670;23;19978;-92
2022/05/07 00:56:39;;;;;;;;;;;;;;;9.11;100.00;98983.63;3211816;23;19927;-92
2022/05/07 00:57:54;;;;;;;;;;;;;;;9.07;100.00;98984.53;3212011;23;19924;-93
2022/05/07 00:59:10;;;;;;;;;;;;;;;9.03;100.00;98983.72;3211658;23;19931;-93
2022/05/07 01:00:25;;;;;;;;;;;;;;;8.98;100.00;98971.59;3212251;23;19930;-93
2022/05/07 01:01:41;;;;;;;;;;;;;;;8.98;100.00;98977.66;3211433;23;19947;-92
2022/05/07 01:02:56;;;;;;;;;;;;;;;9.03;100.00;98977.63;3211217;23;19924;-94
2022/05/07 01:04:12;;;;;;;;;;;;;;;9.10;100.00;98981.88;3211773;23;19928;-94
2022/05/07 01:05:28;;;;;;;;;;;;;;;9.08;100.00;98974.94;3211815;23;20346;-92
2022/05/07 01:06:44;;;;;;;;;;;;;;;9.26;100.00;98973.84;3212268;23;19928;-93
2022/05/07 01:08:00;;;;;;;;;;;;;;;9.24;100.00;98986.06;3213767;23;19920;-92
2022/05/07 01:09:15;;;;;;;;;;;;;;;9.22;100.00;98979.97;3214351;23;20263;-92
2022/05/07 01:10:31;;;;;;;;;;;;;;;9.20;100.00;98982.63;3211698;23;20423;-92
2022/05/07 01:11:47;;;;;;;;;;;;;;;9.18;100.00;98979.19;3213753;23;19923;-93
2022/05/07 01:13:04;;;;;;;;;;;;;;;9.15;100.00;98980.06;3215129;23;20332;-93
2022/05/07 01:14:19;;;;;;;;;;;;;;;9.15;100.00;98976.56;3217365;23;20363;-93
2022/05/07 01:15:42;;;;;;;;;;;;;;;9.13;100.00;98981.84;3220688;23;19928;-93
2022/05/07 01:16:57;;;;;;;;;;;;;;;9.10;100.00;98981.88;3215067;23;20382;-93
2022/05/07 01:18:13;;;;;;;;;;;;;;;9.10;100.00;98978.41;3211276;23;20475;-93
2022/05/07 01:19:28;;;;;;;;;;;;;;;9.04;100.00;98981.97;3211455;23;20154;-92
2022/05/07 01:20:44;;;;;;;;;;;;;;;9.01;100.00;98982.88;3211820;23;19924;-93
2022/05/07 01:22:00;;;;;;;;;;;;;;;8.99;100.00;98979.41;3211996;23;19948;-94
2022/05/07 01:23:15;;;;;;;;;;;;;;;8.99;100.00;98973.31;3211023;23;20126;-92
2022/05/07 01:24:31;;;;;;;;;;;;;;;8.94;100.00;98980.34;3211620;23;20351;-92
2022/05/07 01:25:46;;;;;;;;;;;;;;;8.92;100.00;98969.94;3212231;23;19920;-93
2022/05/07 01:27:02;;;;;;;;;;;;;;;8.91;100.00;98981.25;3211615;23;19919;-93
2022/05/07 01:28:17;;;;;;;;;;;;;;;8.86;100.00;98980.44;3211423;23;19928;-94
2022/05/07 01:29:33;;;;;;;;;;;;;;;8.83;100.00;98973.53;3211253;23;20360;-93
2022/05/07 01:30:48;;;;;;;;;;;;;;;8.82;100.00;98974.41;3210768;23;19974;-93
2022/05/07 01:32:04;;;;;;;;;;;;;;;8.81;100.00;98964.84;3210664;23;20352;-93
2022/05/07 01:33:20;;;;;;;;;;;;;;;8.80;100.00;98970.97;3211230;23;20366;-93
2022/05/07 01:34:35;;;;;;;;;;;;;;;8.79;100.00;98969.19;3211128;23;19927;-93
2022/05/07 01:35:50;;;;;;;;;;;;;;;8.79;100.00;98966.59;3210643;23;19924;-93
2022/05/07 01:37:06;;;;;;;;;;;;;;;8.74;100.00;98971.00;3210594;23;19924;-93
2022/05/07 01:38:21;;;;;;;;;;;;;;;8.69;100.00;98965.84;3211155;23;19926;-94
2022/05/07 01:39:37;;;;;;;;;;;;;;;8.68;100.00;98965.88;3211111;23;19923;-92
2022/05/07 01:40:53;;;;;;;;;;;;;;;8.68;100.00;98960.66;3210656;23;19927;-92
2022/05/07 01:42:09;;;;;;;;;;;;;;;8.68;100.00;98961.50;3210249;23;19923;-93
2022/05/07 01:43:26;;;;;;;;;;;;;;;8.69;100.00;98954.56;3210225;23;19931;-93
2022/05/07 01:44:42;;;;;;;;;;;;;;;8.67;100.00;98956.31;3210659;23;19923;-93
2022/05/07 01:45:57;;;;;;;;;;;;;;;8.64;100.00;98957.22;3211360;23;20800;-94
2022/05/07 01:48:47;;;;;;;;;;;;;;;8.69;100.00;98959.78;3211577;23;20401;-92
2022/05/07 01:50:02;;;;;;;;;;;;;;;8.60;100.00;98956.38;3211678;23;19919;-93
2022/05/07 01:51:18;;;;;;;;;;;;;;;8.53;100.00;98957.34;3211502;23;19999;-94
2022/05/07 01:52:34;;;;;;;;;;;;;;;8.53;100.00;98959.06;3211334;23;19924;-96
2022/05/07 01:53:49;;;;;;;;;;;;;;;8.52;100.00;98954.75;3212500;23;19998;-92
2022/05/07 01:55:04;;;;;;;;;;;;;;;8.55;100.00;98958.19;3212224;23;19924;-91
2022/05/07 01:56:20;;;;;;;;;;;;;;;8.56;100.00;98949.47;3212080;23;19990;-93
2022/05/07 01:57:35;;;;;;;;;;;;;;;8.60;100.00;98956.38;3211825;23;19935;-92
2022/05/07 01:58:51;;;;;;;;;;;;;;;8.55;100.00;98945.13;3211776;23;19924;-93
2022/05/07 02:00:06;;;;;;;;;;;;;;;8.55;100.00;98945.13;3211358;23;19923;-93
2022/05/07 02:01:22;;;;;;;;;;;;;;;8.53;100.00;98946.91;3210943;23;19931;-92
2022/05/07 02:02:38;;;;;;;;;;;;;;;8.47;100.00;98946.94;3210441;23;20464;-93
2022/05/07 02:03:53;;;;;;;;;;;;;;;8.43;100.00;98948.69;3210458;23;19966;-92
2022/05/07 02:05:08;;;;;;;;;;;;;;;8.38;100.00;98945.28;3210145;23;19962;-91
2022/05/07 02:06:24;;;;;;;;;;;;;;;8.37;100.00;98948.78;3209336;23;19920;-93
2022/05/07 02:07:39;;;;;;;;;;;;;;;8.31;100.00;98947.09;3209552;23;19958;-93
2022/05/07 02:08:55;;;;;;;;;;;;;;;8.30;100.00;98947.97;3209943;23;20406;-93
2022/05/07 02:10:10;;;;;;;;;;;;;;;8.31;100.00;98949.72;3210332;23;19970;-93
2022/05/07 02:11:25;;;;;;;;;;;;;;;8.31;100.00;98947.09;3210224;23;19978;-93
2022/05/07 02:12:41;;;;;;;;;;;;;;;8.31;100.00;98949.72;3209896;23;20006;-93
2022/05/07 02:13:56;;;;;;;;;;;;;;;8.31;100.00;98952.31;3209770;23;20471;-93
2022/05/07 02:15:12;;;;;;;;;;;;;;;8.30;100.00;98955.81;3210508;23;19919;-92
2022/05/07 02:16:27;;;;;;;;;;;;;;;8.30;100.00;98953.19;3211496;23;19990;-93
2022/05/07 02:17:43;;;;;;;;;;;;;;;8.27;100.00;98953.25;3211543;23;19981;-93
2022/05/07 02:18:59;;;;;;;;;;;;;;;8.28;100.00;98956.69;3212139;23;19928;-93
2022/05/07 02:20:14;;;;;;;;;;;;;;;8.28;100.00;98965.41;3212095;23;19924;-92
2022/05/07 02:21:29;;;;;;;;;;;;;;;8.27;100.00;98958.47;3210891;23;19930;-93
2022/05/07 02:22:45;;;;;;;;;;;;;;;8.29;100.00;98958.41;3211007;23;20375;-94
2022/05/07 02:24:00;;;;;;;;;;;;;;;8.28;100.00;98965.41;3210882;23;19923;-92
2022/05/07 02:25:16;;;;;;;;;;;;;;;8.26;100.00;98958.47;3211085;23;19924;-93
2022/05/07 02:26:31;;;;;;;;;;;;;;;8.30;100.00;98960.16;3215891;23;20275;-92
2022/05/07 02:27:47;;;;;;;;;;;;;;;8.32;100.00;98958.41;3211438;23;19931;-93
2022/05/07 02:29:02;;;;;;;;;;;;;;;8.17;100.00;98959.41;3210847;23;19923;-94
2022/05/07 02:30:19;;;;;;;;;;;;;;;8.18;100.00;98953.31;3210464;23;19964;-92
2022/05/07 02:31:34;;;;;;;;;;;;;;;8.19;100.00;98955.94;3211282;23;20589;-92
2022/05/07 02:32:50;;;;;;;;;;;;;;;8.18;100.00;98956.81;3210839;23;19993;-92
2022/05/07 02:34:05;;;;;;;;;;;;;;;8.18;100.00;98956.81;3210791;23;20255;-94
2022/05/07 02:35:21;;;;;;;;;;;;;;;8.18;100.00;98954.19;3210745;23;19955;-93
2022/05/07 02:36:37;;;;;;;;;;;;;;;8.17;100.00;98956.81;3210640;23;19974;-92
2022/05/07 02:37:54;;;;;;;;;;;;;;;8.11;100.00;98956.88;3210833;23;19924;-93
2022/05/07 02:39:09;;;;;;;;;;;;;;;8.02;100.00;98957.81;3211187;23;19924;-93
2022/05/07 02:40:24;;;;;;;;;;;;;;;8.01;100.00;98956.09;3212771;23;19952;-93
2022/05/07 02:43:14;;;;;;;;;;;;;;;7.90;100.00;98953.59;3212263;23;20247;-93
2022/05/07 02:44:29;;;;;;;;;;;;;;;7.94;100.00;98950.06;3213852;23;20003;-92
2022/05/07 02:45:45;;;;;;;;;;;;;;;7.99;100.00;98947.41;3214702;23;19923;-92
2022/05/07 02:47:00;;;;;;;;;;;;;;;8.07;100.00;98950.81;3214535;23;19934;-93
2022/05/07 02:48:16;;;;;;;;;;;;;;;8.09;100.00;98953.41;3213842;23;19950;-91
2022/05/07 02:49:32;;;;;;;;;;;;;;;8.09;100.00;98946.47;3212809;23;19924;-93
2022/05/07 02:50:47;;;;;;;;;;;;;;;8.07;100.00;98958.66;3210108;23;20390;-92
2022/05/07 02:52:03;;;;;;;;;;;;;;;8.00;100.00;98950.03;3212631;23;20359;-93
2022/05/07 02:53:18;;;;;;;;;;;;;;;8.03;100.00;98952.59;3224035;23;19951;-93
2022/05/07 02:54:34;;;;;;;;;;;;;;;8.04;100.00;98954.31;3223907;23;19967;-93
2022/05/07 02:55:49;;;;;;;;;;;;;;;8.03;100.00;98954.31;3223719;23;19939;-92
2022/05/07 02:57:04;;;;;;;;;;;;;;;8.00;100.00;98955.22;3214074;23;19926;-91
2022/05/07 02:58:20;;;;;;;;;;;;;;;7.97;100.00;98957.88;3210268;23;19920;-92
2022/05/07 02:59:38;;;;;;;;;;;;;;;7.98;100.00;98959.59;3209824;23;19924;-92
2022/05/07 03:00:54;;;;;;;;;;;;;;;7.97;100.00;98960.50;3209963;23;19924;-92
2022/05/07 03:02:10;;;;;;;;;;;;;;;7.94;100.00;98955.28;3210000;23;19943;-91
2022/05/07 03:03:25;;;;;;;;;;;;;;;7.94;100.00;98959.63;3210953;23;20385;-93
2022/05/07 03:04:41;;;;;;;;;;;;;;;7.93;100.00;98960.53;3211105;23;19928;-93
2022/05/07 03:05:59;;;;;;;;;;;;;;;7.92;100.00;98957.03;3210547;23;20410;-92
2022/05/07 03:07:15;;;;;;;;;;;;;;;7.97;100.00;98960.50;3210907;23;19951;-91
2022/05/07 03:08:30;;;;;;;;;;;;;;;7.99;100.00;98963.06;3210156;23;19931;-92
2022/05/07 03:09:46;;;;;;;;;;;;;;;7.99;100.00;98965.66;3210530;23;20350;-92
2022/05/07 03:11:01;;;;;;;;;;;;;;;7.98;100.00;98961.34;3213958;23;19924;-93
2022/05/07 03:12:17;;;;;;;;;;;;;;;7.97;100.00;98954.38;3212579;23;19924;-92
2022/05/07 03:13:32;;;;;;;;;;;;;;;7.98;100.00;98964.81;3210760;23;19931;-90
2022/05/07 03:14:48;;;;;;;;;;;;;;;7.97;100.00;98960.50;3211746;23;19928;-93
2022/05/07 03:16:03;;;;;;;;;;;;;;;7.97;100.00;98960.50;3212871;23;19924;-93
2022/05/07 03:17:19;;;;;;;;;;;;;;;7.93;100.00;98957.91;3213000;23;19920;-92
2022/05/07 03:18:35;;;;;;;;;;;;;;;7.86;100.00;98960.56;3212664;23;20332;-93
2022/05/07 03:19:50;;;;;;;;;;;;;;;7.83;100.00;98967.56;3210960;23;20259;-93
2022/05/07 03:21:06;;;;;;;;;;;;;;;7.85;100.00;98968.41;3210814;23;19920;-93
2022/05/07 03:22:21;;;;;;;;;;;;;;;7.78;100.00;98968.44;3211352;23;19924;-93
2022/05/07 03:23:37;;;;;;;;;;;;;;;7.78;100.00;98967.59;3211262;23;19970;-92
2022/05/07 03:24:52;;;;;;;;;;;;;;;7.80;100.00;98970.16;3210163;23;19924;-93
2022/05/07 03:26:07;;;;;;;;;;;;;;;7.81;100.00;98967.56;3210154;23;20263;-93
2022/05/07 03:27:23;;;;;;;;;;;;;;;7.83;100.00;98960.59;3209822;23;19930;-93
2022/05/07 03:28:39;;;;;;;;;;;;;;;7.86;100.00;98957.09;3210055;23;20087;-91
2022/05/07 03:29:54;;;;;;;;;;;;;;;7.88;100.00;98963.16;3210522;23;20090;-91
2022/05/07 03:31:10;;;;;;;;;;;;;;;7.86;100.00;98963.16;3210177;23;19926;-92
2022/05/07 03:32:25;;;;;;;;;;;;;;;7.85;100.00;98960.59;3210242;23;20343;-92
2022/05/07 03:33:41;;;;;;;;;;;;;;;7.85;100.00;98965.81;3210374;23;20217;-93
2022/05/07 03:34:59;;;;;;;;;;;;;;;7.82;100.00;98963.19;3210834;23;19924;-93
2022/05/07 03:36:19;;;;;;;;;;;;;;;7.81;100.00;98964.06;3210478;23;19947;-92
2022/05/07 03:37:34;;;;;;;;;;;;;;;7.82;100.00;98958.88;3210419;23;19924;-93
2022/05/07 03:38:50;;;;;;;;;;;;;;;7.82;100.00;98957.97;3209902;23;19998;-93
2022/05/07 03:40:06;;;;;;;;;;;;;;;7.74;100.00;98965.88;3210526;23;20018;-92
2022/05/07 03:41:21;;;;;;;;;;;;;;;7.75;100.00;98963.25;3210022;23;19931;-93
2022/05/07 03:42:37;;;;;;;;;;;;;;;7.76;100.00;98967.59;3209804;23;20362;-93
2022/05/07 03:43:52;;;;;;;;;;;;;;;7.68;100.00;98968.53;3209888;23;19924;-93
2022/05/07 03:45:08;;;;;;;;;;;;;;;7.65;100.00;98963.34;3209555;23;19928;-93
2022/05/07 03:46:25;;;;;;;;;;;;;;;7.66;100.00;98963.31;3209474;23;19942;-92
2022/05/07 03:47:41;;;;;;;;;;;;;;;7.69;100.00;98965.94;3209442;23;19924;-92
2022/05/07 03:48:59;;;;;;;;;;;;;;;7.70;100.00;98964.16;3209407;23;19930;-93
2022/05/07 03:50:15;;;;;;;;;;;;;;;7.71;100.00;98961.56;3209548;23;19924;-92
2022/05/07 03:53:29;;;;;;;;;;;;;;;7.73;100.00;98966.75;3209944;23;19924;-92
2022/05/07 03:54:40;;;;;;;;;;;;;;;7.76;100.00;98971.97;3210352;23;20150;-92
2022/05/07 03:55:59;;;;;;;;;;;;;;;7.74;100.00;98969.34;3210597;23;19977;-93
2022/05/07 03:57:16;;;;;;;;;;;;;;;7.77;100.00;98969.31;3211980;23;19939;-93
2022/05/07 03:58:31;;;;;;;;;;;;;;;7.78;100.00;98970.19;3211263;23;19924;-93
2022/05/07 03:59:47;;;;;;;;;;;;;;;7.77;100.00;98977.13;3211446;23;19924;-93
2022/05/07 04:01:02;;;;;;;;;;;;;;;7.77;100.00;98971.94;3211028;23;19969;-91
2022/05/07 04:02:18;;;;;;;;;;;;;;;7.76;100.00;98972.81;3216288;23;19924;-94
2022/05/07 04:03:33;;;;;;;;;;;;;;;7.73;100.00;98967.63;3211164;23;19966;-94
2022/05/07 04:04:49;;;;;;;;;;;;;;;7.76;100.00;98971.97;3210408;23;20030;-94
2022/05/07 04:06:05;;;;;;;;;;;;;;;7.79;100.00;98974.53;3210556;23;19924;-92
2022/05/07 04:07:20;;;;;;;;;;;;;;;7.83;100.00;98983.22;3209590;23;20003;-91
2022/05/07 04:08:35;;;;;;;;;;;;;;;7.86;100.00;98977.97;3209036;23;20347;-92
2022/05/07 04:09:54;;;;;;;;;;;;;;;7.91;100.00;98976.16;3210595;23;20298;-93
2022/05/07 04:11:09;;;;;;;;;;;;;;;7.97;100.00;98981.34;3210826;23;19923;-93
2022/05/07 04:12:25;;;;;;;;;;;;;;;8.04;100.00;98977.78;3210629;23;19924;-93
2022/05/07 04:13:40;;;;;;;;;;;;;;;8.12;100.00;98984.69;3210957;23;19970;-92
2022/05/07 04:15:00;;;;;;;;;;;;;;;8.14;100.00;98988.16;3210381;23;19983;-92
2022/05/07 04:16:15;;;;;;;;;;;;;;;8.15;100.00;98985.50;3209781;23;19920;-93
2022/05/07 04:17:30;;;;;;;;;;;;;;;8.12;100.00;98984.69;3210132;23;19924;-93
2022/05/07 04:18:46;;;;;;;;;;;;;;;8.11;100.00;98982.97;3209827;23;19924;-93
2022/05/07 04:20:02;;;;;;;;;;;;;;;8.19;100.00;98987.22;3210367;23;19931;-92
2022/05/07 04:21:17;;;;;;;;;;;;;;;8.13;100.00;98989.88;3210424;23;19924;-91
2022/05/07 04:22:33;;;;;;;;;;;;;;;8.17;100.00;98982.91;3210393;23;20398;-94
2022/05/07 04:23:48;;;;;;;;;;;;;;;8.19;100.00;98987.22;3210733;23;19928;-93
2022/05/07 04:25:05;;;;;;;;;;;;;;;8.20;100.00;98990.69;3212359;23;20382;-92
2022/05/07 04:26:20;;;;;;;;;;;;;;;8.25;100.00;98988.03;3211248;23;20441;-92
2022/05/07 04:27:36;;;;;;;;;;;;;;;8.26;100.00;98995.84;3210792;23;20228;-92
2022/05/07 04:28:51;;;;;;;;;;;;;;;8.28;100.00;98986.28;3210237;23;20354;-92
2022/05/07 04:30:07;;;;;;;;;;;;;;;8.32;100.00;98987.97;3209898;23;19974;-92
2022/05/07 04:31:24;;;;;;;;;;;;;;;8.31;100.00;98988.84;3210610;23;19923;-92
2022/05/07 04:32:40;;;;;;;;;;;;;;;8.37;100.00;98989.66;3212224;23;19927;-94
2022/05/07 04:33:55;;;;;;;;;;;;;;;8.35;100.00;98989.69;3213164;23;19924;-93
2022/05/07 04:35:11;;;;;;;;;;;;;;;8.36;100.00;98993.13;3211193;23;19931;-93
2022/05/07 04:36:27;;;;;;;;;;;;;;;8.33;100.00;98991.44;3209507;23;19923;-93
2022/05/07 04:37:46;;;;;;;;;;;;;;;8.34;100.00;98988.81;3210823;23;20355;-93
2022/05/07 04:39:01;;;;;;;;;;;;;;;8.38;100.00;98992.25;3210960;23;20008;-93
2022/05/07 04:40:20;;;;;;;;;;;;;;;8.46;100.00;98990.44;3211729;23;19958;-92
2022/05/07 04:41:36;;;;;;;;;;;;;;;8.50;100.00;98991.28;3212039;23;19924;-93
2022/05/07 04:42:51;;;;;;;;;;;;;;;8.56;100.00;98996.44;3211434;23;19919;-93
2022/05/07 04:44:07;;;;;;;;;;;;;;;8.47;100.00;98986.06;3212113;23;19920;-93
2022/05/07 04:45:23;;;;;;;;;;;;;;;8.58;100.00;98992.06;3212109;23;19924;-93
2022/05/07 04:46:39;;;;;;;;;;;;;;;8.57;100.00;98992.97;3212167;23;20002;-92
2022/05/07 04:47:55;;;;;;;;;;;;;;;8.55;100.00;98991.25;3211747;23;19931;-92
2022/05/07 04:49:10;;;;;;;;;;;;;;;8.54;100.00;98993.00;3211770;23;20007;-92
2022/05/07 04:50:26;;;;;;;;;;;;;;;8.49;100.00;98992.13;3211015;23;20335;-92
2022/05/07 04:51:41;;;;;;;;;;;;;;;8.48;100.00;98993.00;3211450;23;20395;-93
2022/05/07 04:52:57;;;;;;;;;;;;;;;8.53;100.00;98998.22;3211388;23;19986;-95
2022/05/07 04:54:12;;;;;;;;;;;;;;;8.48;100.00;99003.47;3211736;23;19978;-92
2022/05/07 04:55:28;;;;;;;;;;;;;;;8.49;100.00;99002.56;3211562;23;19951;-92
2022/05/07 04:56:43;;;;;;;;;;;;;;;8.50;100.00;99001.72;3211732;23;19943;-92
2022/05/07 04:57:58;;;;;;;;;;;;;;;8.49;100.00;98999.97;3211839;23;19930;-94
2022/05/07 04:59:14;;;;;;;;;;;;;;;8.47;100.00;99001.72;3211557;23;20288;-93
2022/05/07 05:00:30;;;;;;;;;;;;;;;8.47;100.00;99007.81;3210968;23;19923;-96
2022/05/07 05:01:46;;;;;;;;;;;;;;;8.56;100.00;99004.28;3211690;23;19920;-93
2022/05/07 05:03:01;;;;;;;;;;;;;;;8.57;100.00;99008.63;3211905;23;19931;-93
2022/05/07 05:04:17;;;;;;;;;;;;;;;8.60;100.00;99005.97;3212906;23;20362;-94
2022/05/07 05:05:32;;;;;;;;;;;;;;;8.61;100.00;99007.69;3212382;23;19947;-91
2022/05/07 05:06:48;;;;;;;;;;;;;;;8.64;100.00;99011.16;3211613;23;19923;-93
2022/05/07 05:08:03;;;;;;;;;;;;;;;8.68;100.00;99013.72;3211156;23;19923;-92
2022/05/07 05:09:19;;;;;;;;;;;;;;;8.72;100.00;99014.56;3211138;23;19990;-93
2022/05/07 05:10:34;;;;;;;;;;;;;;;8.77;100.00;99012.75;3212525;23;19920;-93
2022/05/07 05:11:50;;;;;;;;;;;;;;;8.83;100.00;99004.84;3211941;23;20003;-93
2022/05/07 05:13:05;;;;;;;;;;;;;;;8.89;100.00;99015.22;3211727;23;19920;-94
2022/05/07 05:15:55;;;;;;;;;;;;;;;9.01;100.00;99010.72;3212834;23;19927;-93
2022/05/07 05:17:10;;;;;;;;;;;;;;;9.04;100.00;99001.13;3213247;23;19920;-95
2022/05/07 05:18:26;;;;;;;;;;;;;;;9.04;100.00;99003.72;3213137;23;19982;-94
2022/05/07 05:19:41;;;;;;;;;;;;;;;9.10;100.00;99008.00;3213216;23;19920;-93
2022/05/07 05:20:57;;;;;;;;;;;;;;;9.14;100.00;99008.81;3212867;23;19959;-94
2022/05/07 05:22:12;;;;;;;;;;;;;;;9.16;100.00;99020.13;3213810;23;19924;-95
2022/05/07 05:23:27;;;;;;;;;;;;;;;9.23;100.00;99016.53;3213546;23;19954;-93
2022/05/07 05:24:43;;;;;;;;;;;;;;;9.24;100.00;99014.81;3212996;23;19968;-94
2022/05/07 05:25:58;;;;;;;;;;;;;;;9.19;100.00;99012.25;3215638;23;19928;-94
2022/05/07 05:27:14;;;;;;;;;;;;;;;9.11;100.00;99014.09;3215882;23;19924;-94
2022/05/07 05:28:29;;;;;;;;;;;;;;;9.10;100.00;99013.25;3210838;23;19947;-91
2022/05/07 05:29:45;;;;;;;;;;;;;;;9.17;100.00;99012.25;3210431;23;19931;-90
2022/05/07 05:31:00;;;;;;;;;;;;;;;9.19;100.00;99020.94;3211067;23;19924;-92
2022/05/07 05:32:19;;;;;;;;;;;;;;;9.24;100.00;99020.88;3214023;23;19923;-91
2022/05/07 05:33:34;;;;;;;;;;;;;;;9.24;100.00;99017.41;3221323;23;19944;-95
2022/05/07 05:34:52;;;;;;;;;;;;;;;9.33;100.00;99025.13;3218657;23;19931;-90
2022/05/07 05:36:08;;;;;;;;;;;;;;;9.36;100.00;99014.66;3216547;23;19930;-94
2022/05/07 05:37:23;;;;;;;;;;;;;;;9.36;100.00;99022.47;3221488;23;19924;-94
2022/05/07 05:38:39;;;;;;;;;;;;;;;9.30;100.00;99026.03;3225486;23;19928;-94
2022/05/07 05:39:55;;;;;;;;;;;;;;;9.31;100.00;99016.44;3225936;23;19908;-93
2022/05/07 05:41:11;;;;;;;;;;;;;;;9.38;100.00;99031.16;3226005;23;19914;-88
2022/05/07 05:42:26;;;;;;;;;;;;;;;9.41;100.00;99022.41;3219689;23;20399;-94
2022/05/07 05:43:45;;;;;;;;;;;;;;;9.40;100.00;99025.91;3212133;23;20192;-94
2022/05/07 05:45:00;;;;;;;;;;;;;;;9.37;100.00;99024.22;3212683;23;19966;-94
2022/05/07 05:46:16;;;;;;;;;;;;;;;9.40;100.00;99021.53;3213280;23;20306;-93
2022/05/07 05:47:31;;;;;;;;;;;;;;;9.35;100.00;99023.34;3213311;23;19974;-95
2022/05/07 05:48:47;;;;;;;;;;;;;;;9.40;100.00;99026.78;3213009;23;20330;-94
2022/05/07 05:50:03;;;;;;;;;;;;;;;9.42;100.00;99027.63;3216098;23;19920;-95
2022/05/07 05:51:18;;;;;;;;;;;;;;;9.65;100.00;99023.81;3218068;23;19928;-93
2022/05/07 05:52:34;;;;;;;;;;;;;;;9.63;100.00;99027.34;3213107;23;20038;-94
2022/05/07 05:53:49;;;;;;;;;;;;;;;9.60;100.00;99026.50;3213015;23;19928;-94
2022/05/07 05:55:05;;;;;;;;;;;;;;;9.64;100.00;99035.16;3213117;23;19924;-94
2022/05/07 05:56:20;;;;;;;;;;;;;;;9.58;100.00;99036.13;3214514;23;20343;-95
2022/05/07 05:57:36;;;;;;;;;;;;;;;9.66;100.00;99032.50;3213303;23;19924;-94
2022/05/07 05:58:51;;;;;;;;;;;;;;;9.60;100.00;99036.06;3213475;23;19975;-95
2022/05/07 06:00:07;;;;;;;;;;;;;;;9.65;100.00;99033.41;3214264;23;19942;-95
2022/05/07 06:01:23;;;;;;;;;;;;;;;9.77;100.00;99033.22;3215324;23;19924;-94
2022/05/07 06:02:38;;;;;;;;;;;;;;;9.79;100.00;99039.28;3216147;23;19924;-94
2022/05/07 06:03:53;;;;;;;;;;;;;;;9.83;100.00;99037.50;3216321;23;19960;-94
2022/05/07 06:05:09;;;;;;;;;;;;;;;9.87;100.00;99037.44;3215822;23;20408;-95
2022/05/07 06:06:24;;;;;;;;;;;;;;;9.94;100.00;99038.19;3218209;23;19920;-94
2022/05/07 06:07:40;;;;;;;;;;;;;;;9.92;100.00;99039.97;3219564;23;19934;-96
2022/05/07 06:08:55;;;;;;;;;;;;;;;9.97;100.00;99038.13;3219309;23;19924;-94
2022/05/07 06:10:11;;;;;;;;;;;;;;;9.96;100.00;99041.66;3222985;23;19924;-95
2022/05/07 06:11:26;;;;;;;;;;;;;;;10.08;100.00;99040.56;3219362;23;19923;-94
2022/05/07 06:12:42;;;;;;;;;;;;;;;10.06;100.00;99037.13;3213307;23;19924;-83
2022/05/07 06:13:57;;;;;;;;;;;;;;;10.10;100.00;99044.03;3208331;23;20367;-81
2022/05/07 06:15:13;;;;;;;;;;;;;;;10.12;100.00;99044.84;3208861;23;19923;-82
2022/05/07 06:16:29;;;;;;;;;;;;;;;10.20;100.00;99038.66;3208289;23;19924;-87
2022/05/07 06:17:44;;;;;;;;;;;;;;;10.28;100.00;99040.25;3208696;23;20290;-81
2022/05/07 06:19:00;;;;;;;;;;;;;;;10.30;100.00;99042.84;3207996;23;19955;-82
2022/05/07 06:20:15;;;;;;;;;;;;;;;10.27;100.00;99040.28;3208540;23;20448;-83
2022/05/07 06:21:31;;;;;;;;;;;;;;;10.28;100.00;99037.63;3208360;23;19931;-86
2022/05/07 06:22:46;;;;;;;;;;;;;;;10.31;100.00;99036.72;3208492;23;19928;-82
2022/05/07 06:27:28;;;;;;;;;;;;;;;10.45;100.00;99033.88;3213542;23;19927;-81
2022/05/07 06:28:43;;;;;;;;;;;;;;;10.49;100.00;99032.06;3208466;23;19927;-81
2022/05/07 06:30:02;;;;;;;;;;;;;;;10.45;100.00;99034.75;3208494;23;19930;-82
2022/05/07 06:31:18;;;;;;;;;;;;;;;10.55;100.00;99035.44;3209053;23;19947;-82
2022/05/07 06:32:34;;;;;;;;;;;;;;;10.52;100.00;99035.50;3208245;23;19931;-83
2022/05/07 06:33:50;;;;;;;;;;;;;;;10.51;100.00;99033.78;3208501;23;20637;-84
2022/05/07 06:35:06;;;;;;;;;;;;;;;10.66;99.71;99034.38;3207932;23;19965;-82
2022/05/07 06:36:21;;;;;;;;;;;;;;;10.72;99.40;99036.88;3207800;23;19985;-84
2022/05/07 06:37:37;;;;;;;;;;;;;;;10.72;99.69;99042.13;3208273;23;19924;-81
2022/05/07 06:38:53;;;;;;;;;;;;;;;10.78;97.43;99033.28;3208181;23;19930;-85
2022/05/07 06:40:08;;;;;;;;;;;;;;;10.78;97.96;99033.28;3208096;23;19924;-81
2022/05/07 06:41:24;;;;;;;;;;;;;;;10.86;96.91;99040.09;3208332;23;20335;-82
2022/05/07 06:42:40;;;;;;;;;;;;;;;10.80;96.24;99034.09;3208205;23;19924;-83
2022/05/07 06:43:55;;;;;;;;;;;;;;;10.81;96.38;99038.44;3208519;23;19930;-82
2022/05/07 06:45:11;;;;;;;;;;;;;;;10.87;95.78;99039.19;3208660;23;19924;-85
2022/05/07 06:46:27;;;;;;;;;;;;;;;10.96;96.39;99032.91;3207939;23;19923;-84